Austin Bergstrom International Airport
KAUS : rendu visible

Aérodrome :











RETROUVEZ-NOUS SUR...

 
LOGIN :

S'inscrire | Disclaimer

   EN    FR    IT 

 









Légende :    VFR   VFR Marginal   IFR   IFR Intensif   IFR Très Intensif
Visi : 
Plafond : 
>= 8 km
>= 3000ft
5 à 8 km
1000 à 3000 ft
1500m à 5 km
500 à 1000 ft
800 à 1500m
200 à 500 ft
< 800m
< 200 ft
Symboles :   Orages  Brouillard  Fortes neiges  Fortes précipitations  Vent > 20 kt







- Altitude de l'aérodrome : 542 ft
- Code IATA : AUS


KAUS - Austin Bergstrom International

DERNIER METAR :
  • 240453Z 15016G22KT 10SM BKN020 BKN047 28/23 A2997 RMK AO2 RAE0354 SLP135 P0000 T02780233

METARs EXPIRÉS :
  • 240353Z 15014KT 10SM -RA BKN017 BKN022 BKN034 28/24 A2997 RMK AO2 PK WND 14028/0322 RAB45 SLP136 P0000 T02780239
  • 240253Z 14016KT 10SM BKN019 28/24 A2995 RMK AO2 SLP129 T02780239 53021

TAF KAUS
Valide du 24 à 04h jusqu'au 25 à 06h UTC


240334Z 2404/2506 14013G23KT P6SM VCSH OVC015
FM241500 16014G24KT P6SM BKN025
FM241800 16015G25KT P6SM SCT030
FIR KZHU / Amérique du Nord



MET'MAP, la Météo Aéronautique d'un coup d'oeil ! - Copyright ORBIFLY Décembre 2007 - Disclaimer

ORBIFLY MET'MAP TEAM :

Programmation & Développement : Alexandra Zaïnal
Conception & Développement : Baudouin d'Aumeries
Co-Programmation & Développement : Marc-Olivier Méhu
Soutien technique & logistique : Manuel Goepfert

Contact : metmap@orbifly.com




SOURCES & CREDITS :

   NOAA       Earth
Advisory